sensor_id;sensor_type;location;lat;lon;timestamp;P1;durP1;ratioP1;P2;durP2;ratioP2
60372;SDS011;46216;52.220;5.134;2023-07-29T00:02:12;2.60;;;1.30;;
60372;SDS011;46216;52.220;5.134;2023-07-29T00:04:37;4.93;;;1.50;;
60372;SDS011;46216;52.220;5.134;2023-07-29T00:07:03;2.60;;;1.40;;
60372;SDS011;46216;52.220;5.134;2023-07-29T00:09:29;4.18;;;1.48;;
60372;SDS011;46216;52.220;5.134;2023-07-29T00:11:54;4.63;;;1.60;;
60372;SDS011;46216;52.220;5.134;2023-07-29T00:14:19;2.97;;;1.60;;
60372;SDS011;46216;52.220;5.134;2023-07-29T00:16:45;3.00;;;1.33;;
60372;SDS011;46216;52.220;5.134;2023-07-29T00:19:10;2.78;;;1.23;;
60372;SDS011;46216;52.220;5.134;2023-07-29T00:21:36;3.85;;;1.60;;
60372;SDS011;46216;52.220;5.134;2023-07-29T00:24:01;2.67;;;1.40;;
60372;SDS011;46216;52.220;5.134;2023-07-29T00:26:27;3.15;;;1.55;;
60372;SDS011;46216;52.220;5.134;2023-07-29T00:28:54;2.20;;;1.30;;
60372;SDS011;46216;52.220;5.134;2023-07-29T00:31:20;3.53;;;1.73;;
60372;SDS011;46216;52.220;5.134;2023-07-29T00:33:46;3.72;;;1.50;;
60372;SDS011;46216;52.220;5.134;2023-07-29T00:36:11;2.50;;;1.30;;
60372;SDS011;46216;52.220;5.134;2023-07-29T00:38:37;3.10;;;1.50;;
60372;SDS011;46216;52.220;5.134;2023-07-29T00:41:02;2.60;;;1.70;;
60372;SDS011;46216;52.220;5.134;2023-07-29T00:43:28;3.08;;;1.73;;
60372;SDS011;46216;52.220;5.134;2023-07-29T00:45:54;2.70;;;1.60;;
60372;SDS011;46216;52.220;5.134;2023-07-29T00:48:21;3.45;;;1.73;;
60372;SDS011;46216;52.220;5.134;2023-07-29T00:50:47;4.68;;;1.70;;
60372;SDS011;46216;52.220;5.134;2023-07-29T00:53:13;4.18;;;2.00;;
60372;SDS011;46216;52.220;5.134;2023-07-29T00:55:38;3.00;;;1.92;;
60372;SDS011;46216;52.220;5.134;2023-07-29T00:58:04;2.83;;;1.70;;
60372;SDS011;46216;52.220;5.134;2023-07-29T01:00:29;3.55;;;1.70;;
60372;SDS011;46216;52.220;5.134;2023-07-29T01:02:55;3.63;;;1.80;;
60372;SDS011;46216;52.220;5.134;2023-07-29T01:05:21;3.50;;;1.73;;
60372;SDS011;46216;52.220;5.134;2023-07-29T01:07:49;4.10;;;1.88;;
60372;SDS011;46216;52.220;5.134;2023-07-29T01:12:53;6.05;;;1.63;;
60372;SDS011;46216;52.220;5.134;2023-07-29T01:15:26;2.17;;;1.83;;
60372;SDS011;46216;52.220;5.134;2023-07-29T01:20:53;6.20;;;1.70;;
60372;SDS011;46216;52.220;5.134;2023-07-29T01:23:26;3.67;;;1.65;;
60372;SDS011;46216;52.220;5.134;2023-07-29T01:25:54;5.93;;;1.88;;
60372;SDS011;46216;52.220;5.134;2023-07-29T01:28:20;4.85;;;2.05;;
60372;SDS011;46216;52.220;5.134;2023-07-29T01:30:45;4.57;;;1.90;;
60372;SDS011;46216;52.220;5.134;2023-07-29T01:33:20;6.35;;;1.83;;
60372;SDS011;46216;52.220;5.134;2023-07-29T01:35:52;5.65;;;2.10;;
60372;SDS011;46216;52.220;5.134;2023-07-29T01:38:38;5.43;;;2.33;;
60372;SDS011;46216;52.220;5.134;2023-07-29T01:41:07;4.30;;;1.98;;
60372;SDS011;46216;52.220;5.134;2023-07-29T01:43:33;6.07;;;2.25;;
60372;SDS011;46216;52.220;5.134;2023-07-29T01:46:04;6.40;;;2.33;;
60372;SDS011;46216;52.220;5.134;2023-07-29T01:48:30;5.18;;;2.40;;
60372;SDS011;46216;52.220;5.134;2023-07-29T01:50:56;4.82;;;2.60;;
60372;SDS011;46216;52.220;5.134;2023-07-29T01:53:22;6.18;;;2.35;;
60372;SDS011;46216;52.220;5.134;2023-07-29T01:55:47;8.48;;;2.67;;
60372;SDS011;46216;52.220;5.134;2023-07-29T01:58:13;5.00;;;3.00;;
60372;SDS011;46216;52.220;5.134;2023-07-29T02:00:39;5.45;;;3.28;;
60372;SDS011;46216;52.220;5.134;2023-07-29T02:03:05;4.80;;;3.05;;
60372;SDS011;46216;52.220;5.134;2023-07-29T02:05:30;8.27;;;3.30;;
60372;SDS011;46216;52.220;5.134;2023-07-29T02:07:56;8.98;;;3.80;;
60372;SDS011;46216;52.220;5.134;2023-07-29T02:10:21;8.10;;;3.85;;
60372;SDS011;46216;52.220;5.134;2023-07-29T02:12:47;6.88;;;4.13;;
60372;SDS011;46216;52.220;5.134;2023-07-29T02:15:12;6.03;;;3.90;;
60372;SDS011;46216;52.220;5.134;2023-07-29T02:17:38;8.32;;;4.22;;
60372;SDS011;46216;52.220;5.134;2023-07-29T02:20:03;9.02;;;4.35;;
60372;SDS011;46216;52.220;5.134;2023-07-29T02:22:29;5.57;;;4.32;;
60372;SDS011;46216;52.220;5.134;2023-07-29T02:24:55;5.53;;;3.97;;
60372;SDS011;46216;52.220;5.134;2023-07-29T02:27:20;6.00;;;3.70;;
60372;SDS011;46216;52.220;5.134;2023-07-29T02:29:46;5.93;;;3.63;;
60372;SDS011;46216;52.220;5.134;2023-07-29T02:32:11;8.52;;;3.42;;
60372;SDS011;46216;52.220;5.134;2023-07-29T02:34:37;5.90;;;3.30;;
60372;SDS011;46216;52.220;5.134;2023-07-29T02:37:02;5.65;;;3.45;;
60372;SDS011;46216;52.220;5.134;2023-07-29T02:39:28;5.88;;;3.60;;
60372;SDS011;46216;52.220;5.134;2023-07-29T02:41:53;4.93;;;3.15;;
60372;SDS011;46216;52.220;5.134;2023-07-29T02:44:20;7.47;;;3.38;;
60372;SDS011;46216;52.220;5.134;2023-07-29T02:46:45;5.25;;;3.10;;
60372;SDS011;46216;52.220;5.134;2023-07-29T02:49:11;4.97;;;3.10;;
60372;SDS011;46216;52.220;5.134;2023-07-29T02:51:36;5.75;;;3.17;;
60372;SDS011;46216;52.220;5.134;2023-07-29T02:54:01;6.40;;;3.28;;
60372;SDS011;46216;52.220;5.134;2023-07-29T02:56:27;8.25;;;3.70;;
60372;SDS011;46216;52.220;5.134;2023-07-29T02:58:52;5.60;;;2.88;;
60372;SDS011;46216;52.220;5.134;2023-07-29T03:01:18;6.22;;;3.10;;
60372;SDS011;46216;52.220;5.134;2023-07-29T03:03:43;6.65;;;3.20;;
60372;SDS011;46216;52.220;5.134;2023-07-29T03:06:10;7.35;;;2.90;;
60372;SDS011;46216;52.220;5.134;2023-07-29T03:08:37;6.18;;;2.80;;
60372;SDS011;46216;52.220;5.134;2023-07-29T03:11:06;6.22;;;3.10;;
60372;SDS011;46216;52.220;5.134;2023-07-29T03:13:33;6.15;;;3.28;;
60372;SDS011;46216;52.220;5.134;2023-07-29T03:16:09;5.95;;;3.08;;
60372;SDS011;46216;52.220;5.134;2023-07-29T03:18:36;5.15;;;2.67;;
60372;SDS011;46216;52.220;5.134;2023-07-29T03:21:01;6.40;;;2.97;;
60372;SDS011;46216;52.220;5.134;2023-07-29T03:23:28;6.97;;;3.20;;
60372;SDS011;46216;52.220;5.134;2023-07-29T03:25:58;7.30;;;3.13;;
60372;SDS011;46216;52.220;5.134;2023-07-29T03:28:28;5.10;;;3.03;;
60372;SDS011;46216;52.220;5.134;2023-07-29T03:30:55;6.93;;;3.00;;
60372;SDS011;46216;52.220;5.134;2023-07-29T03:33:20;6.18;;;3.28;;
60372;SDS011;46216;52.220;5.134;2023-07-29T03:35:46;6.35;;;3.00;;
60372;SDS011;46216;52.220;5.134;2023-07-29T03:38:12;5.45;;;3.28;;
60372;SDS011;46216;52.220;5.134;2023-07-29T03:40:38;4.80;;;3.10;;
60372;SDS011;46216;52.220;5.134;2023-07-29T03:43:04;4.88;;;3.25;;
60372;SDS011;46216;52.220;5.134;2023-07-29T03:45:30;5.32;;;3.28;;
60372;SDS011;46216;52.220;5.134;2023-07-29T03:47:55;8.63;;;3.65;;
60372;SDS011;46216;52.220;5.134;2023-07-29T03:50:21;5.30;;;3.17;;
60372;SDS011;46216;52.220;5.134;2023-07-29T03:52:47;5.55;;;3.33;;
60372;SDS011;46216;52.220;5.134;2023-07-29T03:55:12;7.00;;;3.03;;
60372;SDS011;46216;52.220;5.134;2023-07-29T03:57:38;4.20;;;3.22;;
60372;SDS011;46216;52.220;5.134;2023-07-29T04:00:03;5.45;;;3.22;;
60372;SDS011;46216;52.220;5.134;2023-07-29T04:02:29;5.50;;;3.10;;
60372;SDS011;46216;52.220;5.134;2023-07-29T04:04:57;5.80;;;3.35;;
60372;SDS011;46216;52.220;5.134;2023-07-29T04:07:23;5.03;;;3.10;;
60372;SDS011;46216;52.220;5.134;2023-07-29T04:09:48;4.32;;;2.90;;
60372;SDS011;46216;52.220;5.134;2023-07-29T04:12:14;3.15;;;2.50;;
60372;SDS011;46216;52.220;5.134;2023-07-29T04:14:40;5.75;;;2.80;;
60372;SDS011;46216;52.220;5.134;2023-07-29T04:17:05;5.80;;;3.22;;
60372;SDS011;46216;52.220;5.134;2023-07-29T04:19:32;3.03;;;2.47;;
60372;SDS011;46216;52.220;5.134;2023-07-29T04:21:57;5.13;;;2.70;;
60372;SDS011;46216;52.220;5.134;2023-07-29T04:24:22;4.13;;;3.08;;
60372;SDS011;46216;52.220;5.134;2023-07-29T04:26:48;5.68;;;3.17;;
60372;SDS011;46216;52.220;5.134;2023-07-29T04:29:14;5.45;;;2.83;;
60372;SDS011;46216;52.220;5.134;2023-07-29T04:31:39;4.30;;;2.60;;
60372;SDS011;46216;52.220;5.134;2023-07-29T04:34:07;5.28;;;2.97;;
60372;SDS011;46216;52.220;5.134;2023-07-29T04:36:32;5.03;;;2.90;;
60372;SDS011;46216;52.220;5.134;2023-07-29T04:38:58;5.18;;;3.20;;
60372;SDS011;46216;52.220;5.134;2023-07-29T04:41:23;5.07;;;2.78;;
60372;SDS011;46216;52.220;5.134;2023-07-29T04:43:48;6.80;;;2.83;;
60372;SDS011;46216;52.220;5.134;2023-07-29T04:46:14;4.28;;;2.90;;
60372;SDS011;46216;52.220;5.134;2023-07-29T04:48:40;4.40;;;2.90;;
60372;SDS011;46216;52.220;5.134;2023-07-29T04:51:05;4.35;;;2.70;;
60372;SDS011;46216;52.220;5.134;2023-07-29T04:53:31;4.95;;;2.90;;
60372;SDS011;46216;52.220;5.134;2023-07-29T04:55:56;4.75;;;3.17;;
60372;SDS011;46216;52.220;5.134;2023-07-29T04:58:22;3.67;;;3.05;;
60372;SDS011;46216;52.220;5.134;2023-07-29T05:00:47;3.97;;;2.78;;
60372;SDS011;46216;52.220;5.134;2023-07-29T05:03:12;5.00;;;2.80;;
60372;SDS011;46216;52.220;5.134;2023-07-29T05:05:38;4.78;;;3.00;;
60372;SDS011;46216;52.220;5.134;2023-07-29T05:08:03;5.07;;;3.17;;
60372;SDS011;46216;52.220;5.134;2023-07-29T05:10:29;4.53;;;2.80;;
60372;SDS011;46216;52.220;5.134;2023-07-29T05:12:54;3.28;;;2.92;;
60372;SDS011;46216;52.220;5.134;2023-07-29T05:15:19;7.03;;;3.08;;
60372;SDS011;46216;52.220;5.134;2023-07-29T05:17:45;7.03;;;2.83;;
60372;SDS011;46216;52.220;5.134;2023-07-29T05:20:10;8.07;;;3.53;;
60372;SDS011;46216;52.220;5.134;2023-07-29T05:22:36;5.50;;;3.35;;
60372;SDS011;46216;52.220;5.134;2023-07-29T05:25:02;4.60;;;2.92;;
60372;SDS011;46216;52.220;5.134;2023-07-29T05:27:27;5.82;;;3.08;;
60372;SDS011;46216;52.220;5.134;2023-07-29T05:29:53;4.38;;;3.28;;
60372;SDS011;46216;52.220;5.134;2023-07-29T05:32:18;8.88;;;4.00;;
60372;SDS011;46216;52.220;5.134;2023-07-29T05:34:43;5.80;;;3.67;;
60372;SDS011;46216;52.220;5.134;2023-07-29T05:37:09;6.75;;;3.55;;
60372;SDS011;46216;52.220;5.134;2023-07-29T05:39:37;7.22;;;3.47;;
60372;SDS011;46216;52.220;5.134;2023-07-29T05:42:03;4.95;;;3.15;;
60372;SDS011;46216;52.220;5.134;2023-07-29T05:44:29;7.38;;;3.63;;
60372;SDS011;46216;52.220;5.134;2023-07-29T05:46:58;6.18;;;3.53;;
60372;SDS011;46216;52.220;5.134;2023-07-29T05:49:24;8.57;;;3.70;;
60372;SDS011;46216;52.220;5.134;2023-07-29T05:51:49;5.80;;;3.97;;
60372;SDS011;46216;52.220;5.134;2023-07-29T05:54:19;4.63;;;3.33;;
60372;SDS011;46216;52.220;5.134;2023-07-29T05:56:45;6.13;;;3.63;;
60372;SDS011;46216;52.220;5.134;2023-07-29T05:59:10;4.82;;;3.45;;
60372;SDS011;46216;52.220;5.134;2023-07-29T06:01:36;5.32;;;3.83;;
60372;SDS011;46216;52.220;5.134;2023-07-29T06:04:01;5.53;;;3.75;;
60372;SDS011;46216;52.220;5.134;2023-07-29T06:06:27;5.25;;;3.25;;
60372;SDS011;46216;52.220;5.134;2023-07-29T06:08:53;7.55;;;3.67;;
60372;SDS011;46216;52.220;5.134;2023-07-29T06:11:18;6.97;;;3.70;;
60372;SDS011;46216;52.220;5.134;2023-07-29T06:13:43;6.63;;;4.30;;
60372;SDS011;46216;52.220;5.134;2023-07-29T06:16:09;5.35;;;3.78;;
60372;SDS011;46216;52.220;5.134;2023-07-29T06:18:34;7.30;;;4.22;;
60372;SDS011;46216;52.220;5.134;2023-07-29T06:21:00;7.03;;;4.38;;
60372;SDS011;46216;52.220;5.134;2023-07-29T06:23:25;8.02;;;4.22;;
60372;SDS011;46216;52.220;5.134;2023-07-29T06:25:51;7.45;;;4.25;;
60372;SDS011;46216;52.220;5.134;2023-07-29T06:28:25;5.88;;;4.25;;
60372;SDS011;46216;52.220;5.134;2023-07-29T06:30:51;5.65;;;4.20;;
60372;SDS011;46216;52.220;5.134;2023-07-29T06:33:17;9.52;;;4.50;;
60372;SDS011;46216;52.220;5.134;2023-07-29T06:35:42;6.90;;;4.43;;
60372;SDS011;46216;52.220;5.134;2023-07-29T06:38:07;8.30;;;4.30;;
60372;SDS011;46216;52.220;5.134;2023-07-29T06:40:33;5.07;;;4.38;;
60372;SDS011;46216;52.220;5.134;2023-07-29T06:43:01;5.50;;;4.40;;
60372;SDS011;46216;52.220;5.134;2023-07-29T06:45:29;6.55;;;4.55;;
60372;SDS011;46216;52.220;5.134;2023-07-29T06:47:55;7.85;;;4.80;;
60372;SDS011;46216;52.220;5.134;2023-07-29T06:50:20;6.72;;;4.60;;
60372;SDS011;46216;52.220;5.134;2023-07-29T06:52:46;8.50;;;4.90;;
60372;SDS011;46216;52.220;5.134;2023-07-29T06:55:11;7.15;;;5.20;;
60372;SDS011;46216;52.220;5.134;2023-07-29T06:57:36;9.38;;;5.15;;
60372;SDS011;46216;52.220;5.134;2023-07-29T07:00:03;7.75;;;5.07;;
60372;SDS011;46216;52.220;5.134;2023-07-29T07:02:29;8.50;;;4.93;;
60372;SDS011;46216;52.220;5.134;2023-07-29T07:04:55;7.70;;;5.00;;
60372;SDS011;46216;52.220;5.134;2023-07-29T07:07:20;7.90;;;4.97;;
60372;SDS011;46216;52.220;5.134;2023-07-29T07:09:46;7.53;;;4.85;;
60372;SDS011;46216;52.220;5.134;2023-07-29T07:12:11;5.88;;;4.57;;
60372;SDS011;46216;52.220;5.134;2023-07-29T07:14:37;6.95;;;4.75;;
60372;SDS011;46216;52.220;5.134;2023-07-29T07:17:03;6.07;;;4.80;;
60372;SDS011;46216;52.220;5.134;2023-07-29T07:19:28;7.03;;;4.53;;
60372;SDS011;46216;52.220;5.134;2023-07-29T07:21:54;6.32;;;4.70;;
60372;SDS011;46216;52.220;5.134;2023-07-29T07:24:19;7.68;;;4.90;;
60372;SDS011;46216;52.220;5.134;2023-07-29T07:26:44;6.50;;;5.00;;
60372;SDS011;46216;52.220;5.134;2023-07-29T07:29:10;8.25;;;4.35;;
60372;SDS011;46216;52.220;5.134;2023-07-29T07:31:35;5.68;;;4.20;;
60372;SDS011;46216;52.220;5.134;2023-07-29T07:34:01;6.20;;;4.55;;
60372;SDS011;46216;52.220;5.134;2023-07-29T07:36:27;6.43;;;4.78;;
60372;SDS011;46216;52.220;5.134;2023-07-29T07:38:54;7.53;;;4.97;;
60372;SDS011;46216;52.220;5.134;2023-07-29T07:41:19;7.32;;;5.20;;
60372;SDS011;46216;52.220;5.134;2023-07-29T07:43:44;6.45;;;4.88;;
60372;SDS011;46216;52.220;5.134;2023-07-29T07:46:10;7.93;;;5.43;;
60372;SDS011;46216;52.220;5.134;2023-07-29T07:48:35;9.07;;;5.45;;
60372;SDS011;46216;52.220;5.134;2023-07-29T07:51:09;8.25;;;5.30;;
60372;SDS011;46216;52.220;5.134;2023-07-29T07:53:35;8.50;;;5.10;;
60372;SDS011;46216;52.220;5.134;2023-07-29T07:56:01;6.30;;;4.70;;
60372;SDS011;46216;52.220;5.134;2023-07-29T07:58:26;7.43;;;4.40;;
60372;SDS011;46216;52.220;5.134;2023-07-29T08:00:51;7.72;;;4.30;;
60372;SDS011;46216;52.220;5.134;2023-07-29T08:03:20;7.30;;;4.50;;
60372;SDS011;46216;52.220;5.134;2023-07-29T08:05:46;7.57;;;4.10;;
60372;SDS011;46216;52.220;5.134;2023-07-29T08:08:11;8.07;;;4.28;;
60372;SDS011;46216;52.220;5.134;2023-07-29T08:10:37;6.63;;;4.13;;
60372;SDS011;46216;52.220;5.134;2023-07-29T08:13:02;6.70;;;4.13;;
60372;SDS011;46216;52.220;5.134;2023-07-29T08:15:27;6.00;;;4.70;;
60372;SDS011;46216;52.220;5.134;2023-07-29T08:17:53;6.45;;;5.00;;
60372;SDS011;46216;52.220;5.134;2023-07-29T08:20:18;6.03;;;4.78;;
60372;SDS011;46216;52.220;5.134;2023-07-29T08:22:43;10.07;;;4.65;;
60372;SDS011;46216;52.220;5.134;2023-07-29T08:25:11;4.93;;;4.40;;
60372;SDS011;46216;52.220;5.134;2023-07-29T08:27:37;7.68;;;4.20;;
60372;SDS011;46216;52.220;5.134;2023-07-29T08:30:02;5.80;;;3.65;;
60372;SDS011;46216;52.220;5.134;2023-07-29T08:32:32;7.53;;;3.40;;
60372;SDS011;46216;52.220;5.134;2023-07-29T08:34:58;5.15;;;3.47;;
60372;SDS011;46216;52.220;5.134;2023-07-29T08:37:23;5.03;;;3.40;;
60372;SDS011;46216;52.220;5.134;2023-07-29T08:39:48;7.00;;;3.10;;
60372;SDS011;46216;52.220;5.134;2023-07-29T08:42:14;4.50;;;2.83;;
60372;SDS011;46216;52.220;5.134;2023-07-29T08:44:43;6.72;;;2.58;;
60372;SDS011;46216;52.220;5.134;2023-07-29T08:47:09;6.78;;;2.20;;
60372;SDS011;46216;52.220;5.134;2023-07-29T08:49:35;5.32;;;2.00;;
60372;SDS011;46216;52.220;5.134;2023-07-29T08:52:01;3.25;;;1.65;;
60372;SDS011;46216;52.220;5.134;2023-07-29T08:54:29;4.00;;;2.08;;
60372;SDS011;46216;52.220;5.134;2023-07-29T08:56:58;3.75;;;1.75;;
60372;SDS011;46216;52.220;5.134;2023-07-29T08:59:28;2.70;;;1.70;;
60372;SDS011;46216;52.220;5.134;2023-07-29T09:01:54;3.42;;;1.80;;
60372;SDS011;46216;52.220;5.134;2023-07-29T09:04:22;5.15;;;1.75;;
60372;SDS011;46216;52.220;5.134;2023-07-29T09:06:50;4.63;;;1.98;;
60372;SDS011;46216;52.220;5.134;2023-07-29T09:09:16;3.42;;;2.03;;
60372;SDS011;46216;52.220;5.134;2023-07-29T09:11:41;4.25;;;2.00;;
60372;SDS011;46216;52.220;5.134;2023-07-29T09:14:06;3.78;;;1.90;;
60372;SDS011;46216;52.220;5.134;2023-07-29T09:16:32;3.92;;;2.10;;
60372;SDS011;46216;52.220;5.134;2023-07-29T09:19:00;2.42;;;1.70;;
60372;SDS011;46216;52.220;5.134;2023-07-29T09:21:27;5.25;;;2.05;;
60372;SDS011;46216;52.220;5.134;2023-07-29T09:23:54;6.10;;;1.83;;
60372;SDS011;46216;52.220;5.134;2023-07-29T09:26:26;4.55;;;1.80;;
60372;SDS011;46216;52.220;5.134;2023-07-29T09:28:53;4.88;;;1.80;;
60372;SDS011;46216;52.220;5.134;2023-07-29T09:31:20;4.40;;;1.58;;
60372;SDS011;46216;52.220;5.134;2023-07-29T09:33:49;2.88;;;1.88;;
60372;SDS011;46216;52.220;5.134;2023-07-29T09:36:15;4.68;;;1.75;;
60372;SDS011;46216;52.220;5.134;2023-07-29T09:38:40;4.13;;;1.80;;
60372;SDS011;46216;52.220;5.134;2023-07-29T09:41:06;2.90;;;1.60;;
60372;SDS011;46216;52.220;5.134;2023-07-29T09:43:33;4.43;;;2.05;;
60372;SDS011;46216;52.220;5.134;2023-07-29T09:46:00;2.95;;;1.77;;
60372;SDS011;46216;52.220;5.134;2023-07-29T09:48:27;3.35;;;1.70;;
60372;SDS011;46216;52.220;5.134;2023-07-29T09:50:54;3.78;;;1.65;;
60372;SDS011;46216;52.220;5.134;2023-07-29T09:53:20;3.42;;;1.83;;
60372;SDS011;46216;52.220;5.134;2023-07-29T09:55:46;5.97;;;1.92;;
60372;SDS011;46216;52.220;5.134;2023-07-29T09:58:27;2.63;;;1.70;;
60372;SDS011;46216;52.220;5.134;2023-07-29T10:00:56;2.22;;;1.60;;
60372;SDS011;46216;52.220;5.134;2023-07-29T10:03:32;3.17;;;1.77;;
60372;SDS011;46216;52.220;5.134;2023-07-29T10:06:05;5.53;;;1.73;;
60372;SDS011;46216;52.220;5.134;2023-07-29T10:08:49;3.08;;;2.10;;
60372;SDS011;46216;52.220;5.134;2023-07-29T10:11:16;5.43;;;2.08;;
60372;SDS011;46216;52.220;5.134;2023-07-29T10:13:45;4.78;;;2.00;;
60372;SDS011;46216;52.220;5.134;2023-07-29T10:16:11;5.28;;;2.40;;
60372;SDS011;46216;52.220;5.134;2023-07-29T10:18:37;5.35;;;2.40;;
60372;SDS011;46216;52.220;5.134;2023-07-29T10:21:03;3.00;;;2.20;;
60372;SDS011;46216;52.220;5.134;2023-07-29T10:23:34;5.30;;;2.20;;
60372;SDS011;46216;52.220;5.134;2023-07-29T10:26:09;4.07;;;2.13;;
60372;SDS011;46216;52.220;5.134;2023-07-29T10:28:38;3.08;;;2.05;;
60372;SDS011;46216;52.220;5.134;2023-07-29T10:31:05;3.10;;;2.00;;
60372;SDS011;46216;52.220;5.134;2023-07-29T10:33:31;3.03;;;1.92;;
60372;SDS011;46216;52.220;5.134;2023-07-29T10:35:58;4.10;;;2.08;;
60372;SDS011;46216;52.220;5.134;2023-07-29T10:38:24;3.33;;;1.92;;
60372;SDS011;46216;52.220;5.134;2023-07-29T10:40:56;3.17;;;2.45;;
60372;SDS011;46216;52.220;5.134;2023-07-29T10:43:26;2.95;;;2.22;;
60372;SDS011;46216;52.220;5.134;2023-07-29T10:46:15;3.20;;;2.40;;
60372;SDS011;46216;52.220;5.134;2023-07-29T10:48:43;3.67;;;2.30;;
60372;SDS011;46216;52.220;5.134;2023-07-29T10:54:00;3.50;;;2.70;;
60372;SDS011;46216;52.220;5.134;2023-07-29T10:56:31;5.28;;;2.88;;
60372;SDS011;46216;52.220;5.134;2023-07-29T10:59:02;4.30;;;3.22;;
60372;SDS011;46216;52.220;5.134;2023-07-29T11:01:57;6.38;;;2.90;;
60372;SDS011;46216;52.220;5.134;2023-07-29T11:04:24;6.25;;;3.35;;
60372;SDS011;46216;52.220;5.134;2023-07-29T11:09:41;4.30;;;3.10;;
60372;SDS011;46216;52.220;5.134;2023-07-29T11:14:59;4.63;;;4.00;;
60372;SDS011;46216;52.220;5.134;2023-07-29T11:17:41;3.97;;;3.67;;
60372;SDS011;46216;52.220;5.134;2023-07-29T11:20:21;4.90;;;4.40;;
60372;SDS011;46216;52.220;5.134;2023-07-29T11:22:48;4.35;;;3.95;;
60372;SDS011;46216;52.220;5.134;2023-07-29T11:25:14;4.28;;;3.67;;
60372;SDS011;46216;52.220;5.134;2023-07-29T11:27:44;3.75;;;3.10;;
60372;SDS011;46216;52.220;5.134;2023-07-29T11:30:11;3.88;;;3.05;;
60372;SDS011;46216;52.220;5.134;2023-07-29T11:32:38;3.30;;;2.42;;
60372;SDS011;46216;52.220;5.134;2023-07-29T11:35:09;3.90;;;1.80;;
60372;SDS011;46216;52.220;5.134;2023-07-29T11:37:40;2.00;;;1.65;;
60372;SDS011;46216;52.220;5.134;2023-07-29T11:40:06;1.95;;;1.48;;
60372;SDS011;46216;52.220;5.134;2023-07-29T11:42:34;1.63;;;1.40;;
60372;SDS011;46216;52.220;5.134;2023-07-29T11:45:00;1.67;;;1.48;;
60372;SDS011;46216;52.220;5.134;2023-07-29T11:47:27;1.73;;;1.30;;
60372;SDS011;46216;52.220;5.134;2023-07-29T11:49:53;2.17;;;1.27;;
60372;SDS011;46216;52.220;5.134;2023-07-29T11:52:22;1.67;;;1.30;;
60372;SDS011;46216;52.220;5.134;2023-07-29T11:54:50;1.40;;;1.30;;
60372;SDS011;46216;52.220;5.134;2023-07-29T11:57:15;1.10;;;1.00;;
60372;SDS011;46216;52.220;5.134;2023-07-29T11:59:43;1.20;;;0.93;;
60372;SDS011;46216;52.220;5.134;2023-07-29T12:02:12;1.70;;;1.15;;
60372;SDS011;46216;52.220;5.134;2023-07-29T12:04:40;1.10;;;1.00;;
60372;SDS011;46216;52.220;5.134;2023-07-29T12:07:10;1.77;;;1.10;;
60372;SDS011;46216;52.220;5.134;2023-07-29T12:09:47;1.88;;;1.35;;
60372;SDS011;46216;52.220;5.134;2023-07-29T12:12:18;1.45;;;1.35;;
60372;SDS011;46216;52.220;5.134;2023-07-29T12:14:44;1.58;;;1.40;;
60372;SDS011;46216;52.220;5.134;2023-07-29T12:17:11;1.77;;;1.50;;
60372;SDS011;46216;52.220;5.134;2023-07-29T12:19:46;2.08;;;1.60;;
60372;SDS011;46216;52.220;5.134;2023-07-29T12:22:21;1.45;;;1.35;;
60372;SDS011;46216;52.220;5.134;2023-07-29T12:24:50;1.55;;;1.45;;
60372;SDS011;46216;52.220;5.134;2023-07-29T12:27:30;1.70;;;1.40;;
60372;SDS011;46216;52.220;5.134;2023-07-29T12:29:55;2.00;;;1.80;;
60372;SDS011;46216;52.220;5.134;2023-07-29T12:32:21;1.60;;;1.50;;
60372;SDS011;46216;52.220;5.134;2023-07-29T12:34:52;2.20;;;1.80;;
60372;SDS011;46216;52.220;5.134;2023-07-29T12:37:18;2.10;;;1.90;;
60372;SDS011;46216;52.220;5.134;2023-07-29T12:39:44;1.75;;;1.65;;
60372;SDS011;46216;52.220;5.134;2023-07-29T12:42:09;3.08;;;2.10;;
60372;SDS011;46216;52.220;5.134;2023-07-29T12:44:35;2.30;;;2.10;;
60372;SDS011;46216;52.220;5.134;2023-07-29T12:47:03;2.50;;;2.30;;
60372;SDS011;46216;52.220;5.134;2023-07-29T12:49:29;2.38;;;1.90;;
60372;SDS011;46216;52.220;5.134;2023-07-29T12:51:55;2.65;;;2.00;;
60372;SDS011;46216;52.220;5.134;2023-07-29T12:54:21;2.97;;;2.17;;
60372;SDS011;46216;52.220;5.134;2023-07-29T12:56:47;4.72;;;2.08;;
60372;SDS011;46216;52.220;5.134;2023-07-29T12:59:13;2.75;;;2.10;;
60372;SDS011;46216;52.220;5.134;2023-07-29T13:01:38;1.90;;;1.80;;
60372;SDS011;46216;52.220;5.134;2023-07-29T13:04:04;2.85;;;2.05;;
60372;SDS011;46216;52.220;5.134;2023-07-29T13:06:32;2.28;;;2.03;;
60372;SDS011;46216;52.220;5.134;2023-07-29T13:09:14;2.72;;;2.20;;
60372;SDS011;46216;52.220;5.134;2023-07-29T13:11:40;2.67;;;2.10;;
60372;SDS011;46216;52.220;5.134;2023-07-29T13:14:05;2.28;;;2.08;;
60372;SDS011;46216;52.220;5.134;2023-07-29T13:16:31;2.40;;;2.20;;
60372;SDS011;46216;52.220;5.134;2023-07-29T13:18:57;3.58;;;2.50;;
60372;SDS011;46216;52.220;5.134;2023-07-29T13:21:22;3.15;;;2.15;;
60372;SDS011;46216;52.220;5.134;2023-07-29T13:23:48;2.22;;;2.13;;
60372;SDS011;46216;52.220;5.134;2023-07-29T13:26:13;3.60;;;2.30;;
60372;SDS011;46216;52.220;5.134;2023-07-29T13:28:39;2.70;;;2.20;;
60372;SDS011;46216;52.220;5.134;2023-07-29T13:31:04;2.40;;;2.20;;
60372;SDS011;46216;52.220;5.134;2023-07-29T13:33:30;2.53;;;2.13;;
60372;SDS011;46216;52.220;5.134;2023-07-29T13:35:59;3.05;;;1.95;;
60372;SDS011;46216;52.220;5.134;2023-07-29T13:38:28;2.63;;;2.22;;
60372;SDS011;46216;52.220;5.134;2023-07-29T13:40:54;2.67;;;2.17;;
60372;SDS011;46216;52.220;5.134;2023-07-29T13:43:19;3.08;;;2.40;;
60372;SDS011;46216;52.220;5.134;2023-07-29T13:45:45;4.32;;;2.45;;
60372;SDS011;46216;52.220;5.134;2023-07-29T13:48:10;3.20;;;2.10;;
60372;SDS011;46216;52.220;5.134;2023-07-29T13:50:35;2.40;;;2.15;;
60372;SDS011;46216;52.220;5.134;2023-07-29T13:53:01;2.85;;;1.88;;
60372;SDS011;46216;52.220;5.134;2023-07-29T13:55:26;2.28;;;1.98;;
60372;SDS011;46216;52.220;5.134;2023-07-29T13:57:52;3.67;;;2.10;;
60372;SDS011;46216;52.220;5.134;2023-07-29T14:00:18;2.28;;;2.08;;
60372;SDS011;46216;52.220;5.134;2023-07-29T14:02:44;3.38;;;2.20;;
60372;SDS011;46216;52.220;5.134;2023-07-29T14:05:09;3.22;;;1.70;;
60372;SDS011;46216;52.220;5.134;2023-07-29T14:07:37;2.42;;;1.63;;
60372;SDS011;46216;52.220;5.134;2023-07-29T14:10:03;2.85;;;1.50;;
60372;SDS011;46216;52.220;5.134;2023-07-29T14:12:29;2.58;;;1.60;;
60372;SDS011;46216;52.220;5.134;2023-07-29T14:14:54;2.63;;;1.58;;
60372;SDS011;46216;52.220;5.134;2023-07-29T14:17:19;2.55;;;1.30;;
60372;SDS011;46216;52.220;5.134;2023-07-29T14:19:45;2.08;;;1.60;;
60372;SDS011;46216;52.220;5.134;2023-07-29T14:22:10;4.80;;;1.92;;
60372;SDS011;46216;52.220;5.134;2023-07-29T14:24:36;1.90;;;1.50;;
60372;SDS011;46216;52.220;5.134;2023-07-29T14:27:04;2.38;;;1.50;;
60372;SDS011;46216;52.220;5.134;2023-07-29T14:29:30;4.75;;;1.73;;
60372;SDS011;46216;52.220;5.134;2023-07-29T14:31:55;3.90;;;1.80;;
60372;SDS011;46216;52.220;5.134;2023-07-29T14:34:20;2.80;;;1.35;;
60372;SDS011;46216;52.220;5.134;2023-07-29T14:36:46;2.15;;;1.23;;
60372;SDS011;46216;52.220;5.134;2023-07-29T14:39:11;2.58;;;1.08;;
60372;SDS011;46216;52.220;5.134;2023-07-29T14:41:36;2.38;;;1.38;;
60372;SDS011;46216;52.220;5.134;2023-07-29T14:44:02;1.20;;;1.10;;
60372;SDS011;46216;52.220;5.134;2023-07-29T14:46:27;2.42;;;1.20;;
60372;SDS011;46216;52.220;5.134;2023-07-29T14:48:53;2.55;;;1.35;;
60372;SDS011;46216;52.220;5.134;2023-07-29T14:51:18;1.70;;;1.20;;
60372;SDS011;46216;52.220;5.134;2023-07-29T14:53:44;1.92;;;1.00;;
60372;SDS011;46216;52.220;5.134;2023-07-29T14:56:12;4.18;;;1.20;;
60372;SDS011;46216;52.220;5.134;2023-07-29T14:58:38;1.98;;;1.05;;
60372;SDS011;46216;52.220;5.134;2023-07-29T15:01:04;2.15;;;1.23;;